Detall de PIREP

Printer-friendly versionPDF version

[2009/10/17 16:29:00]
Flight IATA:CT1006
Pilot Number:026
Company ICAO:CAT
Aircraft Type:B75F/E
PAX:0
Departing Airport: LTBA
Destination Airport: LGAV
Alternate Airport:LGTS
Online: VATSIM
Route:BIG UN604 KEPIR
Flight Level:FL320
No Slew and time accel
No pause
Crash detect
Detect pilot in Cockpit between each 30 and 45 minutes
16:29 Zero fuel Weight: 238061 Lbs, Fuel Weight: 17608 Lbs
16:29 VATSIM:LTBA 171550Z 33008KT 9999 FEW020CB SCT030 BKN100 17/14 Q1015 NOSIG
16:29 VATSIM:LGAV 171550Z 25003KT 9999 SCT020 BKN060 18/15 Q1012 NOSIG
16:30 VOICE CATALONIAN / ALMOGAVERS ROUTE
16:33 Parking Brakes off
16:42 Take-off
16:42 Take off Weight: 254347 Lbs
16:42 Wind: 337º @ 014 Knots Heading: 359º
16:42 POS N40º 59´ 09´´ E028º 48´ 31´´
16:42 Flaps:4 at 179 Knots
16:42 Gear Up: 181 Knots
16:42 Flaps:3 at 162 Knots
16:42 Flaps:2 at 184 Knots
16:43 Flaps:1 at 204 Knots
1
6:44 Flaps:0 at 210 Knots
16:57 Wind:016º@037 Knots Heading: 210º Ground Speed: 498 Knots Altitude 28907 ft
17:01 TOC
17:01 Fuel Weight: 10398 Lb
17:12 Wind:177º@024 Knots Heading: 233º Ground Speed: 460 Knots Altitude 31978 ft
17:14 TOD
17:14 Fuel Weight: 8499 Lb
17:27 Wind:146º@009 Knots Heading: 251º Ground Speed: 274 Knots Altitude 8881 ft
17:37 Gear Down: 210 Knots
17:37 Flaps:1 at 209 Knots
17:37 Flaps:2 at 209 Knots
17:38 Flaps:0 at 209 Knots
17:38 Gear Up: 211 Knots
17:42 Wind:127º@007 Knots Heading: 037º Ground Speed: 232 Knots Altitude 4002 ft
17:57 Wind:207º@002 Knots Heading: 287º Ground Speed: 215 Knots Altitude 2995 ft
18:07 Gear Down: 200 Knots
18:07 Flaps:1 at 198 Knots
18:07 Flaps:2 at 198 Knots
18:08 Flaps:3 at 187 Knots
18:08 Flaps:4 at 174 Knots
18:08 Flaps:5 at 162 Knots
18:09 Flaps:6 at 139 Knots
18:10 TouchDown:Rate -623 ft/min Spe
ed: 134 Knots
18:10 VATSIM:LGAV 171750Z 33003KT 9999 FEW020 BKN080 17/14 Q1012 NOSIG
18:10 Land
18:10 Wind:327º@003 Knots
18:10 Heading: 038º
18:10 Flight Duration: 01:28
18:10 Landing Weight: 240168 Lbs
18:10 POS N37º 55´ 53´´ E023º 55´ 42´´
18:18 Parking brakes on
18:18 Block to Block Duration: 01:45
18:18 Final Fuel: 1291 Lbls
18:18 Spent Fuel: 16316 Lbls
18:18 Flight Length: 474 NM
18:18 TOD Land Length: 244 NM

Exportar CSV

Powered by Drupal - Modified by Danger4k